tititudorancea.com
Station Historical Data
Daily Summary for August 2, 2018 Units:  Metric    English   Both
« Previous Day
Next Day »
Daily Weekly Monthly Yearly Custom
  High: Low: Average:
Temperature: -17.8 °C 3.7 °C 9.7 °C
Dew Point: -17.8 °C 2.6 °C 4.8 °C
Humidity: Humidity % 57 % 73 %
Wind Speed: 0 km/h 1.6 km/h 20.8 km/h
Wind Gust: 0 km/h - -
Wind:- - SE
Pressure: 0 hPa 1008.7 hPa -
Precipitation: 0.2 mm    
Historical Graphs
 
 
Ararat weather Find more about Weather in Ararat, AU


 



 


Tabular Data for August 2, 2018
Time Temperature Dew Point Pressure Wind Wind Speed Wind Gust Humidity Rainfall Rate (Hourly)
-17.8 °C -17.8 °C 0 hPa Calm     Humidity % 0 mm
00:04 4.1 °C 3.2 °C 1020.5 hPa North 1.6 km/h 0.2 km/h 94 % 0 mm
00:09 4.2 °C 3.3 °C 1020.5 hPa NNW 1.9 km/h   94 % 0 mm
00:14 4.2 °C 3.2 °C 1020.5 hPa NNW 3.2 km/h 1.6 km/h 93 % 0 mm
00:19 4.2 °C 3.3 °C 1020.5 hPa NNW 5.6 km/h 0.3 km/h 94 % 0 mm
00:24 4.4 °C 3.5 °C 1020.2 hPa NNW 3.7 km/h 1.4 km/h 94 % 0 mm
00:29 4.4 °C 3.4 °C 1020.2 hPa NNW 1.9 km/h 0.2 km/h 93 % 0 mm
00:34 4.4 °C 3.4 °C 1020.2 hPa North 3.7 km/h 2.6 km/h 93 % 0 mm
00:39 4.4 °C 3.4 °C 1019.9 hPa North 5.6 km/h 2.4 km/h 93 % 0 mm
00:44 4.6 °C 3.7 °C 1019.9 hPa NNW 4.8 km/h 3.5 km/h 94 % 0 mm
00:49 4.6 °C 3.5 °C 1019.9 hPa NNW 3.7 km/h 3.2 km/h 93 % 0.2 mm
00:54 4.4 °C 3.3 °C 1019.9 hPa NNW 3.7 km/h 2.7 km/h 93 % 0.2 mm
00:59 4.3 °C 3.3 °C 1019.9 hPa North 5.6 km/h 3.4 km/h 93 % 0.2 mm
01:04 4.3 °C 3.2 °C 1019.9 hPa NNW 3.7 km/h 3.1 km/h 93 % 0.2 mm
01:09 4.2 °C 3.1 °C 1019.9 hPa North 3.7 km/h 2.6 km/h 93 % 0.2 mm
01:14 4 °C 2.9 °C 1019.5 hPa North 3.7 km/h 1.1 km/h 93 % 0.2 mm
01:19 3.9 °C 2.9 °C 1019.5 hPa NNW 1.9 km/h   93 % 0.2 mm
01:24 3.8 °C 2.6 °C 1019.5 hPa NNW 3.7 km/h 2.4 km/h 92 % 0.2 mm
01:29 3.7 °C 2.7 °C 1019.5 hPa North 1.9 km/h   93 % 0.2 mm
01:34 3.8 °C 2.8 °C 1019.5 hPa North 3.2 km/h 0.8 km/h 93 % 0.2 mm
01:39 3.8 °C 2.7 °C 1019.5 hPa North 5.6 km/h 3.9 km/h 93 % 0.2 mm
01:44 3.8 °C 2.7 °C 1019.5 hPa NNW 5.6 km/h 3.5 km/h 93 % 0.2 mm
01:49 4.2 °C 3.5 °C 1019.9 hPa North 8 km/h 5.6 km/h 95 % 0 mm
01:54 4.8 °C 3.9 °C 1019.9 hPa North 5.6 km/h 2.3 km/h 94 % 0 mm
01:59 5 °C 4.1 °C 1019.9 hPa NNW 5.6 km/h 3.9 km/h 94 % 0 mm
02:04 5.2 °C 4.3 °C 1019.9 hPa North 5.6 km/h 3.5 km/h 94 % 0 mm
02:09 5.4 °C 4.3 °C 1019.5 hPa NNW 5.6 km/h 1.9 km/h 93 % 0 mm
02:14 5.3 °C 4.3 °C 1019.5 hPa North 3.7 km/h 2.1 km/h 93 % 0 mm
02:19 5.3 °C 4.3 °C 1019.5 hPa NNW 5.6 km/h 1 km/h 93 % 0 mm
02:24 5.3 °C 4.1 °C 1019.5 hPa NNW 3.7 km/h 2.4 km/h 92 % 0 mm
02:29 5.2 °C 4.1 °C 1019.5 hPa North 3.2 km/h 2.4 km/h 92 % 0 mm
02:34 5.2 °C 4 °C 1019.5 hPa North 5.6 km/h 2.6 km/h 92 % 0 mm
02:39 5.1 °C 3.9 °C 1019.5 hPa North 3.7 km/h 1.6 km/h 92 % 0 mm
02:44 5 °C 3.8 °C 1019.5 hPa North 1.6 km/h 0.5 km/h 92 % 0 mm
02:49 4.9 °C 3.8 °C 1019.2 hPa NNW 1.9 km/h   92 % 0 mm
02:54 4.8 °C 3.5 °C 1019.5 hPa NNW 3.7 km/h 2.1 km/h 91 % 0 mm
02:59 4.6 °C 3.3 °C 1019.5 hPa NNW 3.7 km/h 1.6 km/h 91 % 0 mm
03:04 4.5 °C 3.3 °C 1019.2 hPa North 3.7 km/h 1.1 km/h 92 % 0 mm
03:09 4.5 °C 3.3 °C 1019.2 hPa North 5.6 km/h 4.2 km/h 92 % 0 mm
03:14 4.6 °C 3.4 °C 1019.2 hPa NNW 5.6 km/h 2.9 km/h 92 % 0 mm
03:19 4.8 °C 3.7 °C 1019.5 hPa NNW 7.4 km/h 6.1 km/h 93 % 0 mm
03:24 4.9 °C 3.8 °C 1019.5 hPa North 5.6 km/h 4.2 km/h 92 % 0 mm
03:29 5.1 °C 3.9 °C 1019.2 hPa North 5.6 km/h 4.2 km/h 92 % 0 mm
03:34 5.1 °C 3.9 °C 1019.2 hPa NNW 5.6 km/h 5.5 km/h 92 % 0 mm
03:39 5.2 °C 3.8 °C 1019.2 hPa NNW 5.6 km/h 3.2 km/h 91 % 0 mm
03:44 5.2 °C 3.9 °C 1019.2 hPa North 5.6 km/h 3.4 km/h 91 % 0 mm
03:49 5.3 °C 3.9 °C 1019.2 hPa North 7.4 km/h 4.3 km/h 91 % 0 mm
03:54 5.3 °C 3.9 °C 1019.2 hPa North 7.4 km/h 5.1 km/h 91 % 0 mm
03:59 5.2 °C 3.7 °C 1019.2 hPa NNW 5.6 km/h 5.5 km/h 90 % 0 mm
04:04 5.1 °C 3.6 °C 1019.2 hPa North 7.4 km/h 4.2 km/h 90 % 0 mm
04:09 5 °C 3.5 °C 1019.2 hPa NNW 14.8 km/h 5.8 km/h 90 % 0 mm
04:14 5.1 °C 3.6 °C 1019.2 hPa North 5.6 km/h 5 km/h 90 % 0 mm
04:19 5 °C 3.5 °C 1019.2 hPa North 7.4 km/h 3.1 km/h 90 % 0 mm
04:24 5 °C 3.5 °C 1019.2 hPa North 5.6 km/h 2.9 km/h 90 % 0 mm
04:29 5 °C 3.5 °C 1019.2 hPa North 5.6 km/h 3.2 km/h 90 % 0 mm
04:34 4.9 °C 3.4 °C 1019.2 hPa NNW 5.6 km/h 3.1 km/h 90 % 0 mm
04:39 4.8 °C 3.3 °C 1019.2 hPa North 3.7 km/h 1.8 km/h 90 % 0 mm
04:44 4.8 °C 3.3 °C 1019.2 hPa NNW 3.2 km/h 1.3 km/h 90 % 0 mm
04:49 4.7 °C 3.1 °C 1019.5 hPa NNW 1.9 km/h 0.2 km/h 89 % 0 mm
04:54 4.5 °C 3 °C 1019.5 hPa North 3.7 km/h 1.4 km/h 90 % 0 mm
04:59 4.4 °C 2.9 °C 1019.5 hPa NNW 3.2 km/h 1.9 km/h 90 % 0 mm
05:04 4.3 °C 2.8 °C 1019.5 hPa North 5.6 km/h 0.5 km/h 90 % 0 mm
05:09 4.3 °C 2.8 °C 1019.5 hPa NNW 11.1 km/h 4.2 km/h 90 % 0 mm
05:14 4.6 °C 3.3 °C 1019.5 hPa North 5.6 km/h 4.7 km/h 91 % 0 mm
05:19 5.1 °C 3.8 °C 1019.5 hPa North 16.7 km/h 5.6 km/h 91 % 0 mm
05:24 5.4 °C 3.9 °C 1019.5 hPa North 13 km/h 6.1 km/h 90 % 0 mm
05:29 5.5 °C 3.8 °C 1019.5 hPa North 11.3 km/h 6.1 km/h 89 % 0 mm
05:34 5.6 °C 3.7 °C 1019.5 hPa North 7.4 km/h 5.6 km/h 88 % 0 mm
05:39 5.7 °C 3.8 °C 1019.5 hPa NNW 9.3 km/h 6.6 km/h 88 % 0 mm
05:44 5.7 °C 3.9 °C 1019.5 hPa NNW 11.1 km/h 7.6 km/h 88 % 0 mm
05:49 5.8 °C 3.8 °C 1019.5 hPa NNW 13 km/h 8.2 km/h 87 % 0 mm
05:54 5.9 °C 3.9 °C 1019.5 hPa North 13 km/h 11.3 km/h 87 % 0 mm
05:59 6 °C 3.8 °C 1019.5 hPa North 18.5 km/h 11.3 km/h 86 % 0 mm
06:04 6 °C 3.8 °C 1019.2 hPa North 16.1 km/h 11.7 km/h 86 % 0 mm
06:09 6.1 °C 3.9 °C 1019.2 hPa North 18.5 km/h 9 km/h 86 % 0 mm
06:14 6.1 °C 3.8 °C 1019.2 hPa NNW 16.7 km/h 14 km/h 85 % 0 mm
06:19 6.1 °C 3.7 °C 1019.2 hPa NNW 19.3 km/h 13.7 km/h 85 % 0 mm
06:24 6 °C 3.7 °C 1019.5 hPa North 14.8 km/h 11.3 km/h 85 % 0 mm
06:29 5.9 °C 3.6 °C 1019.5 hPa NNW 14.8 km/h 10.6 km/h 85 % 0 mm
06:34 5.9 °C 3.6 °C 1019.2 hPa NNW 18.5 km/h 10.5 km/h 85 % 0 mm
06:39 5.9 °C 3.6 °C 1019.5 hPa NNW 14.8 km/h 11.4 km/h 85 % 0 mm
06:44 5.9 °C 3.6 °C 1019.5 hPa North 16.7 km/h 10.5 km/h 85 % 0 mm
06:49 5.8 °C 3.4 °C 1019.5 hPa North 14.8 km/h 11.6 km/h 85 % 0 mm
06:54 5.7 °C 3.3 °C 1019.5 hPa NNW 13 km/h 10.8 km/h 85 % 0 mm
06:59 5.5 °C 3.2 °C 1019.9 hPa North 11.1 km/h 9.3 km/h 85 % 0 mm
07:04 5.4 °C 3.2 °C 1019.9 hPa North 9.7 km/h 9.7 km/h 86 % 0 mm
07:09 5.3 °C 3.1 °C 1019.9 hPa North 9.3 km/h 7.1 km/h 86 % 0 mm
07:14 5.2 °C 3.1 °C 1019.5 hPa North 9.3 km/h 6.9 km/h 86 % 0 mm
07:19 5.2 °C 3 °C 1019.5 hPa North 13 km/h 6.3 km/h 86 % 0 mm
07:24 5.1 °C 3.1 °C 1019.9 hPa NNW 5.6 km/h 3.9 km/h 87 % 0 mm
07:29 5.1 °C 3.1 °C 1019.5 hPa NNW 5.6 km/h 3.1 km/h 87 % 0 mm
07:34 5.1 °C 3.1 °C 1019.5 hPa NNW 5.6 km/h 2.6 km/h 87 % 0 mm
07:39 5.1 °C 3.1 °C 1019.5 hPa NNW 5.6 km/h 3.1 km/h 87 % 0 mm
07:44 5.2 °C 3.2 °C 1019.5 hPa North 8 km/h 7.9 km/h 87 % 0 mm
07:49 5.4 °C 3.4 °C 1019.5 hPa North 18.5 km/h 10 km/h 87 % 0 mm
07:54 5.6 °C 3.6 °C 1019.5 hPa NNW 13 km/h 5.8 km/h 87 % 0 mm
07:59 5.8 °C 3.7 °C 1019.2 hPa NNW 18.5 km/h 7.4 km/h 86 % 0 mm
08:04 6.2 °C 4 °C 1019.2 hPa North 11.1 km/h 8.4 km/h 86 % 0 mm
08:09 6.5 °C 4.2 °C 1019.2 hPa North 20.4 km/h 15 km/h 85 % 0 mm
08:14 6.8 °C 4.2 °C 1019.2 hPa North 18.5 km/h 12.1 km/h 83 % 0 mm
08:19 7.1 °C 4.2 °C 1019.2 hPa North 24.1 km/h 12.4 km/h 82 % 0 mm
08:24 7.2 °C 4.3 °C 1019.2 hPa NNW 18.5 km/h 13.2 km/h 82 % 0 mm
08:29 7.4 °C 4.3 °C 1019.2 hPa North 16.7 km/h 13.7 km/h 81 % 0 mm
08:34 7.6 °C 4.4 °C 1019.2 hPa North 25.9 km/h 12.2 km/h 80 % 0 mm
08:39 7.7 °C 4.5 °C 1019.2 hPa North 18.5 km/h 13.2 km/h 80 % 0 mm
08:44 7.9 °C 4.4 °C 1019.2 hPa North 18.5 km/h 18.5 km/h 79 % 0 mm
08:49 8.1 °C 4.6 °C 1018.8 hPa North 18.5 km/h 16.7 km/h 79 % 0 mm
08:54 8.2 °C 4.6 °C 1019.2 hPa North 14.5 km/h 10.9 km/h 78 % 0 mm
08:59 8.4 °C 4.8 °C 1019.2 hPa North 14.8 km/h 8.4 km/h 78 % 0 mm
09:04 8.7 °C 4.8 °C 1019.2 hPa NNE 22.2 km/h 13 km/h 77 % 0 mm
09:09 8.8 °C 4.8 °C 1018.8 hPa North 18.5 km/h 11.4 km/h 76 % 0 mm
09:14 8.9 °C 4.7 °C 1018.8 hPa NNE 18.5 km/h 11.4 km/h 75 % 0 mm
09:19 9.1 °C 4.8 °C 1018.8 hPa NNE 18.5 km/h 10.5 km/h 75 % 0 mm
09:24 9.2 °C 4.8 °C 1018.8 hPa NNE 24.1 km/h 13.7 km/h 74 % 0 mm
09:29 9.4 °C 5.1 °C 1018.8 hPa North 18.5 km/h 8.7 km/h 74 % 0 mm
09:34 9.6 °C 5 °C 1018.8 hPa NE 25.7 km/h 16.7 km/h 73 % 0 mm
09:39 9.6 °C 4.9 °C 1018.8 hPa NNE 18.5 km/h 12.7 km/h 73 % 0 mm
09:44 9.6 °C 5.2 °C 1018.8 hPa NNE 24.1 km/h 17.4 km/h 74 % 0 mm
09:49 9.6 °C 5.4 °C 1018.8 hPa NNE 16.7 km/h 9.8 km/h 75 % 0 mm
09:54 9.9 °C 5.7 °C 1018.8 hPa NNE 18.5 km/h 12.1 km/h 75 % 0 mm
09:59 10.1 °C 5.5 °C 1018.5 hPa North 22.2 km/h 15.1 km/h 73 % 0 mm
10:04 10.2 °C 5.3 °C 1018.5 hPa NNE 29.6 km/h 15 km/h 72 % 0 mm
10:09 10.3 °C 5.4 °C 1018.5 hPa NE 29.6 km/h 22.4 km/h 72 % 0 mm
10:14 10.6 °C 5.4 °C 1018.2 hPa NNE 27.4 km/h 18.7 km/h 70 % 0 mm
10:19 10.8 °C 5.5 °C 1018.2 hPa NNE 22.2 km/h 10 km/h 70 % 0 mm
10:24 11 °C 5.3 °C 1018.2 hPa North 31.5 km/h 21.4 km/h 68 % 0 mm
10:29 11.1 °C 5.2 °C 1018.2 hPa NNE 40.7 km/h 19.3 km/h 67 % 0 mm
10:34 11.2 °C 5.5 °C 1018.2 hPa NNE 24.1 km/h 17.4 km/h 68 % 0 mm
10:39 11.4 °C 5.5 °C 1018.2 hPa NNE 38.9 km/h 20.1 km/h 67 % 0 mm
10:44 11.4 °C 5.5 °C 1017.8 hPa NE 38.6 km/h 24.8 km/h 67 % 0 mm
10:49 11.5 °C 5.4 °C 1017.8 hPa NNE 35.2 km/h 28.3 km/h 66 % 0 mm
10:54 11.7 °C 5.5 °C 1017.8 hPa North 33.3 km/h 18.5 km/h 66 % 0 mm
10:59 11.8 °C 5.4 °C 1017.5 hPa NNE 38.9 km/h 29.3 km/h 65 % 0 mm
11:04 11.8 °C 5.4 °C 1017.5 hPa NE 35.2 km/h 20 km/h 65 % 0 mm
11:09 12 °C 5.6 °C 1017.5 hPa NNE 31.5 km/h 24.3 km/h 65 % 0 mm
11:14 12.2 °C 5.6 °C 1017.2 hPa North 30.6 km/h 20.1 km/h 64 % 0 mm
11:19 12.3 °C 5.9 °C 1017.5 hPa NNE 27.4 km/h 16.3 km/h 65 % 0 mm
11:24 12.3 °C 5.5 °C 1017.2 hPa NNE 42.6 km/h 27.7 km/h 63 % 0 mm
11:29 12.3 °C 5.4 °C 1017.2 hPa North 33.3 km/h 31.1 km/h 63 % 0 mm
11:34 12.4 °C 5.6 °C 1017.2 hPa North 35.2 km/h 21.4 km/h 63 % 0 mm
11:39 12.6 °C 6 °C 1017.2 hPa NNE 24.1 km/h 20.4 km/h 64 % 0 mm
11:44 12.4 °C 5.8 °C 1016.8 hPa NE 40.7 km/h 18 km/h 64 % 0 mm
11:49 12.7 °C 6.1 °C 1016.8 hPa NNE 22.5 km/h 13.2 km/h 64 % 0 mm
11:54 12.8 °C 5.9 °C 1016.8 hPa NNE 33.3 km/h 22.7 km/h 63 % 0 mm
11:59 12.8 °C 6.1 °C 1016.5 hPa NE 22.2 km/h 18.3 km/h 64 % 0 mm
12:04 12.8 °C 6.1 °C 1016.5 hPa NNE 38.9 km/h 26.4 km/h 64 % 0 mm
12:09 12.8 °C 6.3 °C 1016.5 hPa NNE 31.5 km/h 16.7 km/h 65 % 0 mm
12:14 12.9 °C 6.4 °C 1016.1 hPa NNE 31.5 km/h 20.6 km/h 65 % 0 mm
12:19 12.9 °C 6.5 °C 1016.1 hPa NNE 33.3 km/h 17.1 km/h 65 % 0 mm
12:24 13.2 °C 6.5 °C 1015.8 hPa NNE 33.3 km/h 21.6 km/h 64 % 0 mm
12:29 13.3 °C 6.2 °C 1015.8 hPa NE 31.5 km/h 25.6 km/h 62 % 0 mm
12:34 13.3 °C 6.6 °C 1015.8 hPa NNE 32.2 km/h 22.7 km/h 64 % 0 mm
12:39 13.4 °C 6.5 °C 1015.5 hPa NNE 42.6 km/h 22 km/h 63 % 0 mm
12:44 13.4 °C 6.8 °C 1015.5 hPa NNW 33.3 km/h 18 km/h 64 % 0 mm
12:49 13.7 °C 6.5 °C 1015.5 hPa NNE 38.9 km/h 27 km/h 62 % 0 mm
12:54 13.6 °C 6.4 °C 1015.1 hPa NNW 31.5 km/h 30.4 km/h 62 % 0 mm
12:59 13.5 °C 6.3 °C 1015.1 hPa NE 42.6 km/h 23.3 km/h 62 % 0 mm
13:04 13.4 °C 6.3 °C 1015.1 hPa NNE 42.6 km/h 31.2 km/h 62 % 0 mm
13:09 13.6 °C 6.7 °C 1014.8 hPa NNW 31.5 km/h 25.9 km/h 63 % 0 mm
13:14 13.8 °C 6.6 °C 1014.8 hPa NNE 40.7 km/h 27.4 km/h 62 % 0 mm
13:19 13.7 °C 6.5 °C 1014.8 hPa NNE 37 km/h 23.3 km/h 62 % 0 mm
13:24 13.8 °C 6.6 °C 1014.8 hPa North 48.1 km/h 26.6 km/h 62 % 0 mm
13:29 13.7 °C 6.8 °C 1014.4 hPa North 48.1 km/h 24 km/h 63 % 0 mm
13:34 13.6 °C 6.7 °C 1014.4 hPa North 40.7 km/h 23.7 km/h 63 % 0 mm
13:39 13.8 °C 6.9 °C 1014.1 hPa NNE 42.6 km/h 20.8 km/h 63 % 0 mm
13:44 13.9 °C 6.7 °C 1014.1 hPa NNE 46.3 km/h 31.5 km/h 62 % 0 mm
13:49 13.7 °C 6.8 °C 1013.8 hPa NNE 44.4 km/h 29.6 km/h 63 % 0 mm
13:54 13.7 °C 7.1 °C 1013.4 hPa NNE 37 km/h 28.6 km/h 64 % 0 mm
13:59 13.8 °C 7.1 °C 1013.4 hPa NNE 42.6 km/h 30.6 km/h 64 % 0 mm
14:04 13.8 °C 6.8 °C 1013.4 hPa NNE 42.6 km/h 31.9 km/h 63 % 0 mm
14:09 13.8 °C 7.1 °C 1013.4 hPa NE 38.9 km/h 27.7 km/h 64 % 0 mm
14:14 14 °C 7.3 °C 1013.4 hPa NNE 33.3 km/h 25.7 km/h 64 % 0 mm
14:19 14.1 °C 7.2 °C 1013.4 hPa NNE 37 km/h 19.6 km/h 63 % 0 mm
14:24 14.2 °C 7.2 °C 1013.1 hPa North 42.6 km/h 28.8 km/h 63 % 0 mm
14:29 14.2 °C 7.2 °C 1013.1 hPa NNE 33.3 km/h 18.3 km/h 63 % 0 mm
14:34 14.4 °C 7.5 °C 1013.1 hPa NNE 30.6 km/h 22.9 km/h 63 % 0 mm
14:39 14.4 °C 7.4 °C 1013.1 hPa NNE 29.6 km/h 18.8 km/h 63 % 0 mm
14:44 14.4 °C 7.4 °C 1013.1 hPa NNE 37 km/h 18.5 km/h 63 % 0 mm
14:49 14.5 °C 7.3 °C 1013.1 hPa NNE 40.7 km/h 25.9 km/h 62 % 0 mm
14:54 14.4 °C 7.2 °C 1012.8 hPa NNE 35.2 km/h 25.1 km/h 62 % 0 mm
14:59 14.4 °C 6.9 °C 1012.8 hPa NNE 42.6 km/h 20.3 km/h 61 % 0 mm
15:04 14.4 °C 6.9 °C 1012.8 hPa North 37 km/h 24 km/h 61 % 0 mm
15:09 14.6 °C 6.9 °C 1012.8 hPa NNE 33.3 km/h 17.7 km/h 60 % 0 mm
15:14 14.8 °C 6.9 °C 1012.8 hPa NNE 31.5 km/h 17.9 km/h 59 % 0 mm
15:19 14.8 °C 6.7 °C 1012.4 hPa NNE 27.8 km/h 27.4 km/h 58 % 0 mm
15:24 14.7 °C 6.8 °C 1012.4 hPa North 25.9 km/h 18 km/h 59 % 0 mm
15:29 14.7 °C 6.5 °C 1012.4 hPa NNE 35.2 km/h 20.9 km/h 58 % 0 mm
15:34 14.7 °C 6.5 °C 1012.4 hPa North 35.2 km/h 20.8 km/h 58 % 0 mm
15:39 14.7 °C 6.3 °C 1012.4 hPa North 48.1 km/h 27.4 km/h 57 % 0 mm
15:44 14.8 °C 6.4 °C 1012.4 hPa NNE 38.9 km/h 23 km/h 57 % 0 mm
15:49 14.9 °C 6.7 °C 1012.1 hPa NNE 31.5 km/h 15.3 km/h 58 % 0 mm
15:54 14.8 °C 6.9 °C 1012.4 hPa NE 22.2 km/h 12.1 km/h 59 % 0 mm
15:59 14.8 °C 6.8 °C 1012.1 hPa NNE 31.5 km/h 15.4 km/h 59 % 0 mm
16:04 14.6 °C 6.6 °C 1012.1 hPa NNE 31.5 km/h 12.4 km/h 59 % 0 mm
16:09 14.5 °C 6.3 °C 1012.1 hPa NE 37 km/h 18.3 km/h 58 % 0 mm
16:14 14.5 °C 6.3 °C 1011.7 hPa NNE 35.2 km/h 24.1 km/h 58 % 0 mm
16:19 14.5 °C 6.6 °C 1011.7 hPa NNE 29.6 km/h 17.5 km/h 59 % 0 mm
16:24 14.2 °C 6.3 °C 1011.4 hPa NE 37 km/h 21.4 km/h 59 % 0 mm
16:29 14.1 °C 6.2 °C 1011.4 hPa NE 33.3 km/h 17.5 km/h 59 % 0 mm
16:34 14.1 °C 6.2 °C 1011.4 hPa NNE 38.9 km/h 14.8 km/h 59 % 0 mm
16:39 14.1 °C 6.2 °C 1011.4 hPa NNE 25.7 km/h 17.7 km/h 59 % 0 mm
16:44 14.1 °C 6.7 °C 1011.4 hPa NNE 27.8 km/h 18.8 km/h 61 % 0 mm
16:49 14.2 °C 6 °C 1011.1 hPa NNE 31.5 km/h 20.4 km/h 58 % 0 mm
16:54 14.2 °C 6 °C 1011.1 hPa NNE 31.5 km/h 18 km/h 58 % 0 mm
16:59 14.1 °C 5.9 °C 1011.1 hPa NNE 40.7 km/h 20.6 km/h 58 % 0 mm
17:04 14 °C 5.8 °C 1011.1 hPa NNE 24.1 km/h 19.5 km/h 58 % 0 mm
17:09 14 °C 5.8 °C 1011.1 hPa NE 30.6 km/h 25.7 km/h 58 % 0 mm
17:14 13.9 °C 5.8 °C 1011.1 hPa NNE 37 km/h 17.4 km/h 58 % 0 mm
17:19 13.8 °C 5.9 °C 1010.7 hPa NNE 22.5 km/h 24.5 km/h 59 % 0 mm
17:24 13.7 °C 5.8 °C 1010.7 hPa NE 20.4 km/h 10.6 km/h 59 % 0 mm
17:29 13.6 °C 5.9 °C 1010.4 hPa NE 25.9 km/h 14.2 km/h 60 % 0 mm
17:34 13.4 °C 5.8 °C 1010.4 hPa NNE 29.6 km/h 15.3 km/h 60 % 0 mm
17:39 13.3 °C 5.9 °C 1010.4 hPa NE 27.8 km/h 15.6 km/h 61 % 0 mm
17:44 13.2 °C 6.1 °C 1010.4 hPa NNE 31.5 km/h 17.1 km/h 62 % 0 mm
17:49 13.1 °C 6.2 °C 1010.4 hPa NE 22.2 km/h 16.9 km/h 63 % 0 mm
17:54 13.1 °C 6.2 °C 1010.4 hPa NNE 16.7 km/h 12.6 km/h 63 % 0 mm
17:59 13 °C 6.1 °C 1010.4 hPa NNE 33.3 km/h 19.6 km/h 63 % 0 mm
18:04 13.1 °C 6.2 °C 1010.7 hPa NE 27.8 km/h 12.6 km/h 63 % 0 mm
18:09 13 °C 6.1 °C 1010.7 hPa NNE 18.5 km/h 15.6 km/h 63 % 0 mm
18:14 13 °C 5.9 °C 1010.7 hPa NNE 29.6 km/h 15 km/h 62 % 0 mm
18:19 13 °C 5.9 °C 1010.7 hPa NNE 20.4 km/h 19 km/h 62 % 0 mm
18:24 13 °C 5.9 °C 1010.7 hPa NNE 27.8 km/h 12.4 km/h 62 % 0 mm
18:29 12.9 °C 5.8 °C 1010.7 hPa NNE 27.8 km/h 14.2 km/h 62 % 0 mm
18:34 12.9 °C 5.8 °C 1010.7 hPa NE 29.6 km/h 16.3 km/h 62 % 0 mm
18:39 12.9 °C 5.8 °C 1010.7 hPa NNE 33.3 km/h 20 km/h 62 % 0 mm
18:44 12.9 °C 5.8 °C 1010.7 hPa NNE 25.9 km/h 15 km/h 62 % 0 mm
18:49 12.9 °C 5.6 °C 1011.1 hPa NNE 25.9 km/h 13.7 km/h 61 % 0 mm
18:54 12.9 °C 5.6 °C 1011.1 hPa NNE 24.1 km/h 19.6 km/h 61 % 0 mm
18:59 12.9 °C 5.6 °C 1011.1 hPa NNE 22.2 km/h 17.9 km/h 61 % 0 mm
19:04 12.9 °C 5.6 °C 1011.1 hPa NNE 25.9 km/h 16.9 km/h 61 % 0 mm
19:09 12.9 °C 5.6 °C 1011.1 hPa NNE 25.9 km/h 14 km/h 61 % 0 mm
19:14 12.8 °C 5.4 °C 1011.1 hPa NNE 27.4 km/h 19.8 km/h 61 % 0 mm
19:19 12.8 °C 5.5 °C 1011.1 hPa NNE 20.4 km/h 9.8 km/h 61 % 0 mm
19:24 12.8 °C 5.4 °C 1011.1 hPa NNE 22.2 km/h 16.9 km/h 61 % 0 mm
19:29 12.9 °C 5.3 °C 1011.1 hPa NNE 22.2 km/h 15.1 km/h 60 % 0 mm
19:34 12.9 °C 5.3 °C 1011.4 hPa NNE 24.1 km/h 21.6 km/h 60 % 0 mm
19:39 12.9 °C 5.3 °C 1011.1 hPa NNE 27.4 km/h 19.6 km/h 60 % 0 mm
19:44 12.8 °C 5.3 °C 1011.4 hPa NNE 22.5 km/h 14.2 km/h 60 % 0 mm
19:49 12.9 °C 5.1 °C 1011.1 hPa NNE 25.9 km/h 15 km/h 59 % 0 mm
19:54 12.8 °C 5 °C 1011.1 hPa NNE 16.7 km/h 12.1 km/h 59 % 0 mm
19:59 12.7 °C 5.2 °C 1011.1 hPa NNE 20.4 km/h 11.7 km/h 60 % 0 mm
20:04 12.7 °C 5.2 °C 1011.1 hPa NE 22.2 km/h 15.6 km/h 60 % 0 mm
20:09 12.7 °C 5.1 °C 1011.1 hPa NNE 14.8 km/h 13.8 km/h 60 % 0 mm
20:14 12.6 °C 5 °C 1011.1 hPa NNE 18.5 km/h 13.7 km/h 60 % 0 mm
20:19 12.4 °C 5.1 °C 1011.1 hPa NE 24.1 km/h 12.7 km/h 61 % 0 mm
20:24 12.4 °C 5.1 °C 1011.1 hPa NNE 22.2 km/h 6.9 km/h 61 % 0 mm
20:29 12.2 °C 5.1 °C 1011.1 hPa NNE 18.5 km/h 6.8 km/h 62 % 0 mm
20:34 11.9 °C 5.1 °C 1011.1 hPa NNE 14.8 km/h 7.6 km/h 63 % 0 mm
20:39 11.8 °C 4.9 °C 1011.1 hPa NNE 18.5 km/h 9.7 km/h 63 % 0 mm
20:44 11.7 °C 5.1 °C 1011.1 hPa NNE 18.5 km/h 10.5 km/h 64 % 0 mm
20:49 11.6 °C 5 °C 1011.1 hPa NNE 20.4 km/h 13.7 km/h 64 % 0 mm
20:54 11.6 °C 5 °C 1011.1 hPa NE 14.8 km/h 10.9 km/h 64 % 0 mm
20:59 11.5 °C 4.9 °C 1011.1 hPa NNE 16.7 km/h 15.4 km/h 64 % 0 mm
21:04 11.4 °C 4.9 °C 1011.1 hPa NNE 13 km/h 11.1 km/h 64 % 0 mm
21:09 11.3 °C 4.8 °C 1010.7 hPa NNE 16.7 km/h 10.8 km/h 64 % 0 mm
21:14 11.3 °C 4.9 °C 1010.7 hPa NNE 16.7 km/h 6.3 km/h 65 % 0 mm
21:19 11.2 °C 4.8 °C 1010.7 hPa NNE 16.7 km/h 7.6 km/h 65 % 0 mm
21:24 11.1 °C 4.8 °C 1010.7 hPa NE 18.5 km/h 11.4 km/h 65 % 0 mm
21:29 11.2 °C 4.8 °C 1010.7 hPa NNE 14.8 km/h 7.1 km/h 65 % 0 mm
21:34 11.2 °C 4.8 °C 1010.4 hPa NE 13 km/h 10.5 km/h 65 % 0 mm
21:39 11.1 °C 4.8 °C 1010.4 hPa NE 18.5 km/h 13 km/h 65 % 0 mm
21:44 11.1 °C 4.6 °C 1010.4 hPa NNE 24.1 km/h 14.6 km/h 64 % 0 mm
21:49 11.2 °C 4.6 °C 1010.4 hPa NE 13 km/h 7.4 km/h 64 % 0 mm
21:54 11.2 °C 4.4 °C 1010.4 hPa NE 16.7 km/h 11.6 km/h 63 % 0 mm
21:59 11.2 °C 4.4 °C 1010 hPa ENE 27.8 km/h 12.9 km/h 63 % 0 mm
22:04 11.3 °C 4.5 °C 1010 hPa NNE 20.4 km/h 10 km/h 63 % 0 mm
22:09 11.3 °C 4.3 °C 1010 hPa NNE 31.5 km/h 15.4 km/h 62 % 0 mm
22:14 11.3 °C 4.3 °C 1010 hPa NE 18.5 km/h 13.8 km/h 62 % 0 mm
22:19 11.3 °C 4.3 °C 1010 hPa NE 20.4 km/h 9 km/h 62 % 0 mm
22:24 11.3 °C 4.3 °C 1009.7 hPa NE 14.8 km/h 11.1 km/h 62 % 0 mm
22:29 11.4 °C 4.3 °C 1009.7 hPa NE 14.8 km/h 11.6 km/h 62 % 0 mm
22:34 11.4 °C 4.3 °C 1009.7 hPa NE 27.8 km/h 14.2 km/h 62 % 0 mm
22:39 11.4 °C 4.3 °C 1009.7 hPa NE 18.5 km/h 11.9 km/h 62 % 0 mm
22:44 11.4 °C 4.3 °C 1009.7 hPa NE 27.8 km/h 16.6 km/h 62 % 0 mm
22:49 11.4 °C 4.3 °C 1009.7 hPa NNE 18.5 km/h 8.7 km/h 62 % 0 mm
22:54 11.4 °C 4.2 °C 1009.4 hPa NE 20.4 km/h 15.9 km/h 61 % 0 mm
22:59 11.5 °C 4.2 °C 1009.4 hPa NE 22.5 km/h 13.5 km/h 61 % 0 mm
23:04 11.5 °C 4.2 °C 1009.4 hPa NE 25.9 km/h 8.4 km/h 61 % 0 mm
23:09 11.5 °C 4.2 °C 1009.4 hPa ENE 24.1 km/h 14.6 km/h 61 % 0 mm
23:14 11.6 °C 4.3 °C 1009.4 hPa NE 22.2 km/h 11.7 km/h 61 % 0 mm
23:19 11.7 °C 4.2 °C 1009 hPa NE 20.4 km/h 9.2 km/h 60 % 0 mm
23:24 11.7 °C 4.2 °C 1009 hPa ENE 20.4 km/h 11.9 km/h 60 % 0 mm
23:29 11.7 °C 4.2 °C 1009 hPa NE 31.5 km/h 10.1 km/h 60 % 0 mm
23:34 11.7 °C 4.2 °C 1009 hPa NE 18.5 km/h 10.6 km/h 60 % 0 mm
23:39 11.8 °C 4.3 °C 1008.7 hPa East 22.2 km/h 10.8 km/h 60 % 0 mm
23:44 11.8 °C 4 °C 1008.7 hPa NE 27.8 km/h 9.5 km/h 59 % 0 mm
23:49 11.9 °C 4.1 °C 1008.7 hPa NE 20.9 km/h 16.3 km/h 59 % 0 mm
23:54 11.9 °C 3.9 °C 1008.7 hPa NNE 31.5 km/h 14.6 km/h 58 % 0 mm
23:59 12 °C 4 °C 1008.7 hPa NE 14.8 km/h 10.6 km/h 58 % 0 mm
Ararat Weather
Compliments of Weather Underground - 2.25 mb
Click here to send mail.


ABOUT

Live weather data from Ararat, Victoria, Australia, 3377
Data uploaded from Cumulus every 5 minutes to Weather Underground.
This site then downloads the raw data for formatting and display.
Metric and imperial data can be displayed. Graphs and historical data available.
Includes Sun and Moon times and rain image live from BOM.

Check out Ararat Weather on Facebook, Twitter and Google +

Help support ongoing costs by checking out the ads





Follow @AraratWeather